Terminal Aerodrome Forecast
Issued by NWS

Home | Current Version | Previous Version | Text Only | Print | Product List | Glossary On
Versions: 1 2 3 4 5 6 7 8 9 10 11 12 13 14 15 16 17
000
FTUS46 KSGX 271330 AAA
TAFCRQ
TAF AMD
KCRQ 271330Z 2714/2812 VRB04KT P6SM SCT007
      TEMPO 2714/2715 BKN007
     FM271500 VRB04KT P6SM SCT008
     FM271900 25008KT P6SM SKC
     FM280100 VRB04KT P6SM FEW010
     FM280800 VRB03KT P6SM BKN008=

USA.gov is the U.S. government's official web portal to all federal, state and local government web resources and services.